createdAt,value
2022-12-06T00:04:19.214Z,53.80
2022-12-06T00:09:30.064Z,65.82
2022-12-06T00:14:32.146Z,60.67
2022-12-06T00:19:34.022Z,59.80
2022-12-06T00:24:36.052Z,58.75
2022-12-06T00:29:37.983Z,59.60
2022-12-06T00:34:39.905Z,60.83
2022-12-06T00:39:42.402Z,60.17
2022-12-06T00:44:44.529Z,58.45
2022-12-06T00:49:46.565Z,62.67
2022-12-06T00:54:48.493Z,63.00
2022-12-06T00:59:50.435Z,54.88
2022-12-06T01:04:52.628Z,59.15
2022-12-06T01:09:54.699Z,53.38
2022-12-06T01:14:56.803Z,65.65
2022-12-06T01:19:58.891Z,60.50
2022-12-06T01:25:00.988Z,54.05
2022-12-06T01:30:03.119Z,59.05
2022-12-06T01:35:05.741Z,60.17
2022-12-06T01:40:08.299Z,60.05
2022-12-06T01:45:10.649Z,57.22
2022-12-06T01:50:17.616Z,51.60
2022-12-06T01:55:22.435Z,57.45
2022-12-06T02:00:25.865Z,55.63
2022-12-06T02:05:29.924Z,69.05
2022-12-06T02:10:32.155Z,61.15
2022-12-06T02:15:55.871Z,64.90
2022-12-06T02:21:21.012Z,69.18
2022-12-06T02:26:36.125Z,63.90
2022-12-06T02:31:41.839Z,63.88
2022-12-06T02:37:00.546Z,61.88
2022-12-06T02:42:10.092Z,71.35
2022-12-06T02:47:14.486Z,64.30
2022-12-06T02:52:19.197Z,174.20
2022-12-06T02:57:33.379Z,89.40
2022-12-06T03:02:36.199Z,75.57
2022-12-06T03:07:44.173Z,92.77
2022-12-06T03:13:07.548Z,67.95
2022-12-06T03:18:15.324Z,76.87
2022-12-06T03:23:23.647Z,70.55
2022-12-06T03:28:26.713Z,60.25
2022-12-06T03:33:32.358Z,63.30
2022-12-06T03:38:40.756Z,79.82
2022-12-06T03:43:42.711Z,66.88
2022-12-06T03:49:11.545Z,73.45
2022-12-06T03:54:13.624Z,69.22
2022-12-06T03:59:15.572Z,66.85
2022-12-06T04:04:17.483Z,63.58
2022-12-06T04:09:38.096Z,65.13
2022-12-06T04:14:40.144Z,54.97
2022-12-06T04:19:42.043Z,50.08
2022-12-06T04:24:43.896Z,60.45
2022-12-06T04:30:04.311Z,50.85
2022-12-06T04:35:24.540Z,44.58
2022-12-06T04:40:26.435Z,43.67
2022-12-06T04:45:28.277Z,54.67
2022-12-06T04:50:30.138Z,63.50
2022-12-06T04:55:33.548Z,55.47
2022-12-06T05:00:36.785Z,50.67
2022-12-06T05:05:38.848Z,53.78
2022-12-06T05:10:40.811Z,51.13
2022-12-06T05:15:56.897Z,48.25
2022-12-06T05:21:16.250Z,49.50
2022-12-06T05:26:20.252Z,46.67
2022-12-06T05:31:22.920Z,45.33
2022-12-06T05:36:27.098Z,47.95
2022-12-06T05:41:29.074Z,45.53
2022-12-06T05:46:30.964Z,51.42
2022-12-06T05:51:33.030Z,42.28
2022-12-06T05:56:34.960Z,45.60
2022-12-06T06:01:36.880Z,53.55
2022-12-06T06:06:38.799Z,48.13
2022-12-06T06:11:40.696Z,52.83
2022-12-06T06:16:42.736Z,47.13
2022-12-06T06:21:44.891Z,48.22
2022-12-06T06:26:46.960Z,49.20
2022-12-06T06:31:48.915Z,49.08
2022-12-06T06:36:51.246Z,59.85
2022-12-06T06:41:53.376Z,74.85
2022-12-06T06:46:55.249Z,61.35
2022-12-06T06:51:57.252Z,59.38
2022-12-06T06:56:59.594Z,58.17
2022-12-06T07:02:01.797Z,68.60
2022-12-06T07:07:03.765Z,55.72
2022-12-06T07:12:05.857Z,56.50
2022-12-06T07:17:07.971Z,57.28
2022-12-06T07:22:10.572Z,63.30
2022-12-06T07:27:12.655Z,62.70
2022-12-06T07:32:15.143Z,61.65
2022-12-06T07:37:19.132Z,60.05
2022-12-06T07:42:39.655Z,62.28
2022-12-06T07:47:44.022Z,105.18
2022-12-06T07:52:47.532Z,63.78
2022-12-06T07:57:49.701Z,59.92
2022-12-06T08:02:51.613Z,61.67
2022-12-06T08:07:53.493Z,68.22
2022-12-06T08:12:55.462Z,61.75
2022-12-06T08:17:58.228Z,58.00
2022-12-06T08:23:00.219Z,65.22
2022-12-06T08:28:02.411Z,63.45
2022-12-06T08:33:04.336Z,60.28
2022-12-06T08:38:06.179Z,59.42
2022-12-06T08:43:08.256Z,54.35
2022-12-06T08:48:10.137Z,57.78
2022-12-06T08:53:12.071Z,60.28
2022-12-06T08:58:13.921Z,66.00
2022-12-06T09:03:16.028Z,62.80
2022-12-06T09:08:18.115Z,66.35
2022-12-06T09:13:20.098Z,74.72
2022-12-06T09:18:22.425Z,56.13
2022-12-06T09:23:24.353Z,70.15
2022-12-06T09:28:26.352Z,56.42
2022-12-06T09:33:28.552Z,59.05
2022-12-06T09:38:34.130Z,70.13
2022-12-06T09:43:57.924Z,58.63
2022-12-06T09:49:12.971Z,72.05
2022-12-06T09:55:01.508Z,64.13
2022-12-06T10:00:12.014Z,63.83
2022-12-06T10:05:41.357Z,67.85
2022-12-06T10:10:56.167Z,76.93
2022-12-06T10:16:19.849Z,67.28
2022-12-06T10:21:46.060Z,78.40
2022-12-06T10:26:53.788Z,65.93
2022-12-06T10:31:57.895Z,78.22
2022-12-06T10:37:13.303Z,65.75
2022-12-06T10:42:53.777Z,69.00
2022-12-06T10:47:59.332Z,86.10
2022-12-06T10:53:05.914Z,85.80
2022-12-06T10:58:13.614Z,78.63
2022-12-06T11:03:38.154Z,70.72
2022-12-06T11:08:50.609Z,78.15
2022-12-06T11:14:24.210Z,87.65
2022-12-06T11:19:38.836Z,66.70
2022-12-06T11:25:16.708Z,86.93
2022-12-06T11:30:20.827Z,83.38
2022-12-06T11:35:26.490Z,83.30
2022-12-06T11:40:36.770Z,80.00
2022-12-06T11:45:41.395Z,74.78
2022-12-06T11:50:45.987Z,70.68
2022-12-06T11:55:52.719Z,84.00
2022-12-06T12:00:59.764Z,89.55
2022-12-06T12:06:22.888Z,78.65
2022-12-06T12:11:31.001Z,88.93
2022-12-06T12:16:42.914Z,80.32
2022-12-06T12:21:49.619Z,93.32
2022-12-06T12:26:54.771Z,86.20
2022-12-06T12:31:59.550Z,76.70
2022-12-06T12:37:04.567Z,75.63
2022-12-06T12:42:35.036Z,83.50
2022-12-06T12:47:37.517Z,88.97
2022-12-06T12:52:42.314Z,78.82
2022-12-06T12:57:53.203Z,80.07
2022-12-06T13:03:28.596Z,77.30
2022-12-06T13:08:36.331Z,77.03
2022-12-06T13:13:45.290Z,84.18
2022-12-06T13:18:58.546Z,113.40
2022-12-06T13:24:12.417Z,95.03
2022-12-06T13:29:31.023Z,92.43
2022-12-06T13:34:38.889Z,89.55
2022-12-06T13:39:47.394Z,110.70
2022-12-06T13:45:00.716Z,102.30
2022-12-06T13:50:25.152Z,91.88
2022-12-06T13:55:28.441Z,98.38
2022-12-06T14:00:30.500Z,96.43
2022-12-06T14:11:15.953Z,87.00
2022-12-06T14:16:30.697Z,118.00
2022-12-06T14:21:38.089Z,84.68
2022-12-06T14:26:40.138Z,95.20
2022-12-06T14:31:42.284Z,130.70
2022-12-06T14:36:44.310Z,92.13
2022-12-06T14:42:21.335Z,106.10
2022-12-06T14:47:23.647Z,90.78
2022-12-06T14:52:28.583Z,91.15
2022-12-06T14:57:32.275Z,94.40
2022-12-06T15:07:43.221Z,104.53
2022-12-06T15:12:57.104Z,96.60
2022-12-06T15:18:23.628Z,108.50
2022-12-06T15:23:31.699Z,108.03
2022-12-06T15:28:38.003Z,116.45
2022-12-06T15:33:40.135Z,107.85
2022-12-06T15:38:43.567Z,105.55
2022-12-06T15:43:46.546Z,114.22
2022-12-06T15:48:48.592Z,125.10
2022-12-06T15:53:50.852Z,115.82
2022-12-06T15:58:52.773Z,106.25
2022-12-06T16:03:56.375Z,97.45
2022-12-06T16:08:58.481Z,115.63
2022-12-06T16:14:00.746Z,92.63
2022-12-06T16:19:02.785Z,99.43
2022-12-06T16:24:19.818Z,111.30
2022-12-06T16:29:25.221Z,96.63
2022-12-06T16:34:29.284Z,95.97
2022-12-06T16:39:34.637Z,105.35
2022-12-06T16:44:51.339Z,110.25
2022-12-06T16:49:53.919Z,95.10
2022-12-06T16:54:55.786Z,83.22
2022-12-06T16:59:57.789Z,74.55
2022-12-06T17:05:03.495Z,81.65
2022-12-06T17:10:06.416Z,83.10
2022-12-06T17:15:12.789Z,80.33
2022-12-06T17:20:16.780Z,75.50
2022-12-06T17:25:19.546Z,86.95
2022-12-06T17:30:23.352Z,88.18
2022-12-06T17:35:26.006Z,95.20
2022-12-06T17:40:28.008Z,80.85
2022-12-06T17:45:36.508Z,88.00
2022-12-06T17:50:44.773Z,78.72
2022-12-06T17:55:46.700Z,75.38
2022-12-06T18:00:48.779Z,86.85
2022-12-06T18:05:56.935Z,93.93
2022-12-06T18:11:08.700Z,113.75
2022-12-06T18:16:29.212Z,110.00
2022-12-06T18:21:32.544Z,116.68
2022-12-06T18:26:34.864Z,123.13
2022-12-06T18:31:36.983Z,117.97
2022-12-06T18:36:40.557Z,108.22
2022-12-06T18:41:43.594Z,111.15
2022-12-06T18:46:45.554Z,128.68
2022-12-06T18:51:47.641Z,192.00
2022-12-06T18:56:49.554Z,191.77
2022-12-06T19:01:51.948Z,145.95
2022-12-06T19:06:54.468Z,124.13
2022-12-06T19:11:56.729Z,125.57
2022-12-06T19:17:00.621Z,112.60
2022-12-06T19:22:04.228Z,98.63
2022-12-06T19:27:06.106Z,127.40
2022-12-06T19:32:08.058Z,99.20
2022-12-06T19:37:23.783Z,127.78
2022-12-06T19:43:06.950Z,89.95
2022-12-06T19:48:16.184Z,98.07
2022-12-06T19:53:18.300Z,80.80
2022-12-06T19:58:22.301Z,100.93
2022-12-06T20:03:24.907Z,86.90
2022-12-06T20:08:26.856Z,66.75
2022-12-06T20:13:29.774Z,84.63
2022-12-06T20:18:34.960Z,64.40
2022-12-06T20:23:37.200Z,89.82
2022-12-06T20:28:39.539Z,56.05
2022-12-06T20:33:41.692Z,53.05
2022-12-06T20:38:43.869Z,43.10
2022-12-06T20:43:46.808Z,52.67
2022-12-06T20:48:49.381Z,60.70
2022-12-06T20:53:54.250Z,68.22
2022-12-06T20:58:58.224Z,54.45
2022-12-06T21:09:02.150Z,53.08
2022-12-06T21:14:05.522Z,47.92
2022-12-06T21:19:11.779Z,45.58
2022-12-06T21:24:46.597Z,42.33
2022-12-06T21:29:48.514Z,56.65
2022-12-06T21:34:50.792Z,61.67
2022-12-06T21:39:52.881Z,73.43
2022-12-06T21:44:54.979Z,70.82
2022-12-06T21:49:57.048Z,72.30
2022-12-06T21:55:01.699Z,66.47
2022-12-06T22:00:06.133Z,56.80
2022-12-06T22:05:33.966Z,100.20
2022-12-06T22:10:40.576Z,72.38
2022-12-06T22:15:42.556Z,280.73
2022-12-06T22:20:44.700Z,68.07
2022-12-06T22:25:46.760Z,71.40
2022-12-06T22:30:48.907Z,46.15
2022-12-06T22:35:50.765Z,50.70
2022-12-06T22:40:57.221Z,50.67
2022-12-06T22:46:06.677Z,79.18
2022-12-06T22:51:22.296Z,56.97
2022-12-06T22:56:25.319Z,54.42
2022-12-06T23:01:29.698Z,72.13
2022-12-06T23:06:35.447Z,52.88
2022-12-06T23:11:37.497Z,62.95
2022-12-06T23:16:41.480Z,36.28
2022-12-06T23:21:43.675Z,34.75
2022-12-06T23:26:51.824Z,41.90
2022-12-06T23:31:56.593Z,28.50
2022-12-06T23:36:58.638Z,33.53
2022-12-06T23:42:44.918Z,37.95
2022-12-06T23:53:10.384Z,41.28
2022-12-06T23:58:12.592Z,44.42
